Time;durP1;ratioP1;P1;durP2;ratioP2;P2;SDS_P1;SDS_P2;PMS_P1;PMS_P2;Temp;Humidity;BMP_temperature;BMP_pressure;BME280_temperature;BME280_humidity;BME280_pressure;Samples;Min_cycle;Max_cycle;Signal;HPM_P1;HPM_P2
2021/01/21 00:32:16;;;;;;;10.03;9.03;;;6.30;99.20;;;;;;4952139;28;20880;-86
2021/01/21 00:34:45;;;;;;;11.70;10.60;;;6.30;99.40;;;;;;5024858;23;20457;-85
2021/01/21 00:48:19;;;;;;;19.13;12.20;;;6.10;99.90;;;;;;4828182;29;20433;-86
2021/01/21 00:50:49;;;;;;;13.20;11.83;;;6.00;99.90;;;;;;4874534;29;20446;-85
2021/01/21 00:53:55;;;;;;;15.93;12.17;;;6.00;99.90;;;;;;4931834;29;20446;-86
2021/01/21 00:57:05;;;;;;;14.03;12.47;;;6.00;99.90;;;;;;4973754;28;20466;-85
2021/01/21 00:59:31;;;;;;;13.53;12.23;;;6.00;99.90;;;;;;4991942;28;20487;-86
2021/01/21 01:01:57;;;;;;;13.57;12.00;;;6.10;99.90;;;;;;4992279;28;20494;-86
2021/01/21 01:04:24;;;;;;;14.50;13.00;;;6.20;99.90;;;;;;4991561;28;20451;-86
2021/01/21 01:06:51;;;;;;;15.60;13.23;;;6.20;99.70;;;;;;4992149;28;20443;-86
2021/01/21 01:09:17;;;;;;;13.40;11.87;;;6.30;99.80;;;;;;4992066;28;20439;-86
2021/01/21 01:11:43;;;;;;;13.20;11.77;;;6.20;99.60;;;;;;4992360;28;20447;-86
2021/01/21 01:14:09;;;;;;;15.07;12.07;;;6.30;99.60;;;;;;4991967;28;20448;-85
2021/01/21 01:16:36;;;;;;;13.27;11.77;;;6.30;99.60;;;;;;4989886;28;20471;-85
2021/01/21 01:19:02;;;;;;;12.27;11.10;;;6.30;99.60;;;;;;4991735;28;20478;-86
2021/01/21 01:21:28;;;;;;;14.40;12.17;;;6.30;99.60;;;;;;4992231;28;20443;-86
2021/01/21 01:23:56;;;;;;;13.30;11.90;;;6.30;99.70;;;;;;4992012;28;20443;-86
2021/01/21 01:26:22;;;;;;;15.23;11.83;;;6.30;99.70;;;;;;4989750;28;20474;-86
2021/01/21 01:28:48;;;;;;;15.63;12.43;;;6.30;99.80;;;;;;4992100;28;20440;-86
2021/01/21 01:31:15;;;;;;;18.93;13.50;;;6.30;99.80;;;;;;4991435;28;20493;-86
2021/01/21 01:33:43;;;;;;;15.97;14.37;;;6.30;99.80;;;;;;4992060;28;20458;-86
2021/01/21 01:36:10;;;;;;;17.90;14.27;;;6.40;99.90;;;;;;4990841;28;20994;-86
2021/01/21 01:38:36;;;;;;;15.53;13.77;;;6.40;99.90;;;;;;4989917;28;20914;-85
2021/01/21 01:41:04;;;;;;;18.93;14.73;;;6.40;99.90;;;;;;4991891;28;20440;-86
2021/01/21 01:43:31;;;;;;;19.10;14.20;;;6.40;99.90;;;;;;4991790;28;20872;-85
2021/01/21 01:45:57;;;;;;;12.30;10.13;;;6.50;99.80;;;;;;4991272;28;20470;-86
2021/01/21 01:48:24;;;;;;;13.87;12.00;;;6.50;99.50;;;;;;4991762;28;20440;-87
2021/01/21 01:50:50;;;;;;;14.80;10.50;;;6.60;99.30;;;;;;4989929;28;20958;-86
2021/01/21 01:53:16;;;;;;;11.13;8.40;;;6.60;99.10;;;;;;4991452;28;20435;-86
2021/01/21 01:55:42;;;;;;;13.50;12.10;;;6.70;98.10;;;;;;4991555;28;20466;-86
2021/01/21 01:58:17;;;;;;;12.53;10.60;;;6.80;98.10;;;;;;4991702;28;20474;-87
2021/01/21 02:00:45;;;;;;;13.77;9.83;;;6.80;98.70;;;;;;4990305;28;20631;-85
2021/01/21 02:03:43;;;;;;;11.90;9.67;;;6.80;98.40;;;;;;4991663;28;20831;-85
2021/01/21 02:16:10;;;;;;;11.47;9.20;;;6.90;98.30;;;;;;4937596;28;20453;-85
2021/01/21 02:25:57;;;;;;;12.50;7.77;;;7.20;97.10;;;;;;4963230;28;20459;-85
2021/01/21 02:36:27;;;;;;;8.07;6.40;;;7.30;97.00;;;;;;4924527;28;20486;-87
2021/01/21 02:48:41;;;;;;;8.73;5.20;;;7.40;96.30;;;;;;4994810;28;20982;-86
2021/01/21 02:51:39;;;;;;;6.03;5.20;;;7.40;96.30;;;;;;5008929;28;20443;-86
2021/01/21 02:55:03;;;;;;;5.13;4.30;;;7.40;95.50;;;;;;5010870;28;20437;-87
2021/01/21 02:57:41;;;;;;;6.10;3.97;;;7.50;95.80;;;;;;4895684;29;20519;-86
2021/01/21 03:00:11;;;;;;;3.33;2.77;;;7.50;96.00;;;;;;4895135;29;20475;-87
2021/01/21 03:02:59;;;;;;;3.10;2.80;;;7.60;95.00;;;;;;4991345;28;20483;-87
2021/01/21 03:05:27;;;;;;;3.57;2.57;;;7.80;94.50;;;;;;4994281;28;20462;-87
2021/01/21 03:08:00;;;;;;;3.30;3.00;;;8.00;93.10;;;;;;4994404;28;20450;-86
2021/01/21 03:10:33;;;;;;;5.20;2.80;;;8.00;92.90;;;;;;4993671;28;20451;-86
2021/01/21 03:13:00;;;;;;;2.33;2.07;;;8.10;93.00;;;;;;4994744;28;20443;-86
2021/01/21 03:15:27;;;;;;;5.13;2.20;;;8.20;92.80;;;;;;4994562;28;20856;-86
2021/01/21 03:17:59;;;;;;;3.00;1.70;;;8.30;92.00;;;;;;4994261;28;20483;-86
2021/01/21 03:20:26;;;;;;;2.43;2.10;;;8.60;90.90;;;;;;4993260;28;20447;-86
2021/01/21 03:22:52;;;;;;;7.20;4.23;;;8.80;90.30;;;;;;4994036;28;20452;-86
2021/01/21 03:25:20;;;;;;;6.07;4.17;;;8.90;90.30;;;;;;4993716;28;20833;-87
2021/01/21 03:27:46;;;;;;;7.50;4.60;;;8.90;90.40;;;;;;4993876;28;20505;-87
2021/01/21 03:30:13;;;;;;;8.67;5.40;;;8.80;90.90;;;;;;4993801;28;20440;-87
2021/01/21 03:32:40;;;;;;;9.37;6.57;;;8.70;91.30;;;;;;4994427;28;20455;-87
2021/01/21 03:35:07;;;;;;;9.57;7.40;;;8.60;91.50;;;;;;4993828;28;20474;-87
2021/01/21 03:37:34;;;;;;;7.70;5.47;;;8.60;91.80;;;;;;4994294;28;20439;-86
2021/01/21 03:40:01;;;;;;;12.47;6.90;;;8.60;91.20;;;;;;4994121;28;20808;-88
2021/01/21 03:42:28;;;;;;;11.10;6.97;;;8.60;91.40;;;;;;4994212;28;20807;-87
2021/01/21 03:44:54;;;;;;;8.70;5.67;;;8.50;91.50;;;;;;4993405;28;20999;-87
2021/01/21 03:47:21;;;;;;;6.77;4.83;;;8.50;91.50;;;;;;4993900;28;20964;-86
2021/01/21 03:49:47;;;;;;;10.40;5.60;;;8.50;91.60;;;;;;4993925;28;20440;-86
2021/01/21 03:52:16;;;;;;;4.97;4.37;;;8.50;91.40;;;;;;4993757;28;20442;-86
2021/01/21 03:54:43;;;;;;;12.50;4.60;;;8.50;91.30;;;;;;4993352;28;20957;-86
2021/01/21 03:57:09;;;;;;;5.73;4.20;;;8.50;91.30;;;;;;4993710;28;20502;-86
2021/01/21 03:59:38;;;;;;;8.83;4.37;;;8.50;91.20;;;;;;4993555;28;20502;-86
2021/01/21 04:02:04;;;;;;;7.40;4.00;;;8.50;91.10;;;;;;4993448;28;20570;-86
2021/01/21 04:04:30;;;;;;;6.97;3.90;;;8.60;90.60;;;;;;4993623;28;20458;-87
2021/01/21 04:06:57;;;;;;;4.83;3.07;;;8.70;90.40;;;;;;4993167;28;20449;-85
2021/01/21 04:09:23;;;;;;;6.40;3.80;;;8.70;90.40;;;;;;4993226;28;20939;-86
2021/01/21 04:11:52;;;;;;;5.30;4.30;;;8.70;90.10;;;;;;4993228;28;20986;-87
2021/01/21 04:14:19;;;;;;;14.37;6.43;;;8.70;90.60;;;;;;4992968;28;20459;-86
2021/01/21 04:16:47;;;;;;;6.60;4.57;;;8.70;90.90;;;;;;4993011;28;21001;-86
2021/01/21 04:19:13;;;;;;;6.00;4.60;;;8.60;90.90;;;;;;4993134;28;20482;-85
2021/01/21 04:21:40;;;;;;;9.57;6.90;;;8.60;90.80;;;;;;4993354;28;20538;-86
2021/01/21 04:24:07;;;;;;;8.80;4.83;;;8.50;90.90;;;;;;4990791;28;20443;-87
2021/01/21 04:26:34;;;;;;;13.03;6.00;;;8.50;91.20;;;;;;4992384;28;20490;-87
2021/01/21 04:29:01;;;;;;;11.37;6.40;;;8.40;91.40;;;;;;4993039;28;20448;-87
2021/01/21 04:31:27;;;;;;;8.33;4.83;;;8.40;91.30;;;;;;4993163;28;20458;-87
2021/01/21 04:33:55;;;;;;;8.57;5.40;;;8.30;91.40;;;;;;4993488;28;20461;-87
2021/01/21 04:36:21;;;;;;;8.10;5.40;;;8.40;91.20;;;;;;4993252;28;20547;-87
2021/01/21 04:38:47;;;;;;;8.17;6.27;;;8.40;91.20;;;;;;4992626;28;20478;-87
2021/01/21 04:41:14;;;;;;;11.00;6.80;;;8.40;91.50;;;;;;4992580;28;20478;-87
2021/01/21 04:43:40;;;;;;;12.20;6.17;;;8.30;91.80;;;;;;4992740;28;20451;-89
2021/01/21 04:46:08;;;;;;;6.40;4.63;;;8.20;91.80;;;;;;4990300;28;20459;-87
2021/01/21 04:48:35;;;;;;;11.73;4.80;;;8.30;91.60;;;;;;4992783;28;20439;-86
2021/01/21 04:51:04;;;;;;;7.73;4.70;;;8.20;91.60;;;;;;4992506;28;21775;-86
2021/01/21 04:53:32;;;;;;;6.80;3.80;;;8.20;91.70;;;;;;4992246;28;20530;-86
2021/01/21 04:56:01;;;;;;;5.97;3.80;;;8.30;91.30;;;;;;4991898;28;20471;-87
2021/01/21 04:58:31;;;;;;;8.63;5.10;;;8.50;90.70;;;;;;4992591;28;20474;-86
2021/01/21 05:00:59;;;;;;;6.00;3.67;;;8.50;90.80;;;;;;4992440;28;20451;-87
2021/01/21 05:03:27;;;;;;;7.13;3.77;;;8.50;91.00;;;;;;4992530;28;21118;-86
2021/01/21 05:05:54;;;;;;;3.57;2.73;;;8.50;91.00;;;;;;4990048;28;20471;-87
2021/01/21 05:08:22;;;;;;;8.80;3.80;;;8.30;90.90;;;;;;4992002;28;20443;-86
2021/01/21 05:10:50;;;;;;;4.53;2.40;;;8.30;90.90;;;;;;4992104;28;20439;-87
2021/01/21 05:13:16;;;;;;;9.63;3.50;;;8.40;90.50;;;;;;4992188;28;20451;-87
2021/01/21 05:15:43;;;;;;;11.40;3.13;;;8.50;90.60;;;;;;4991884;28;20547;-86
2021/01/21 05:18:12;;;;;;;4.23;2.70;;;8.50;90.40;;;;;;4992139;28;20478;-86
2021/01/21 05:20:38;;;;;;;7.23;1.90;;;8.80;89.00;;;;;;4990365;28;20442;-87
2021/01/21 05:23:06;;;;;;;5.97;1.73;;;9.10;87.90;;;;;;4991728;28;20451;-87
2021/01/21 05:25:34;;;;;;;4.37;2.00;;;9.30;86.60;;;;;;4991144;28;20591;-86
2021/01/21 05:28:04;;;;;;;4.53;1.43;;;9.40;86.30;;;;;;4991613;28;20877;-86
2021/01/21 05:30:31;;;;;;;2.90;1.87;;;9.40;86.10;;;;;;4991306;28;20466;-87
2021/01/21 05:32:58;;;;;;;3.03;1.20;;;9.40;85.90;;;;;;4991609;28;20447;-87
2021/01/21 05:35:25;;;;;;;5.93;1.50;;;9.40;85.80;;;;;;4989462;28;20499;-86
2021/01/21 05:37:55;;;;;;;4.93;2.10;;;9.60;84.50;;;;;;4991657;28;20450;-87
2021/01/21 05:40:23;;;;;;;7.57;1.43;;;9.70;84.40;;;;;;4991846;28;20477;-86
2021/01/21 05:42:52;;;;;;;2.60;1.60;;;9.80;84.40;;;;;;4991648;28;20851;-87
2021/01/21 05:45:19;;;;;;;1.40;1.30;;;9.90;83.60;;;;;;4991177;28;20463;-86
2021/01/21 05:47:53;;;;;;;3.63;1.43;;;9.90;83.30;;;;;;4991556;28;20461;-86
2021/01/21 05:50:20;;;;;;;8.87;2.20;;;10.00;81.10;;;;;;4991244;28;20481;-86
2021/01/21 05:52:47;;;;;;;5.33;1.40;;;10.10;81.20;;;;;;4991022;28;20448;-86
2021/01/21 05:55:13;;;;;;;6.50;2.57;;;10.10;81.10;;;;;;4990865;28;20463;-86
2021/01/21 05:57:40;;;;;;;2.10;1.10;;;10.20;80.70;;;;;;4991545;28;20481;-86
2021/01/21 06:00:09;;;;;;;1.70;1.17;;;10.40;79.60;;;;;;4991498;28;20443;-87
2021/01/21 06:02:37;;;;;;;4.50;1.70;;;10.40;79.90;;;;;;4991258;28;20446;-87
2021/01/21 06:05:04;;;;;;;4.90;1.30;;;10.50;78.30;;;;;;4991066;28;20494;-86
2021/01/21 06:07:31;;;;;;;4.43;2.43;;;10.70;77.30;;;;;;4991289;28;20447;-86
2021/01/21 06:09:58;;;;;;;31.20;3.93;;;10.90;75.80;;;;;;4991193;28;20849;-86
2021/01/21 06:12:27;;;;;;;2.60;1.77;;;10.90;77.10;;;;;;4991407;28;20471;-87
2021/01/21 06:14:59;;;;;;;1.77;1.03;;;11.10;74.80;;;;;;4989430;28;20475;-86
2021/01/21 06:17:26;;;;;;;3.10;1.00;;;11.20;74.20;;;;;;4989951;28;20871;-87
2021/01/21 06:19:52;;;;;;;3.83;1.43;;;11.20;74.00;;;;;;4990950;28;20485;-87
2021/01/21 06:22:22;;;;;;;1.97;0.90;;;11.20;73.90;;;;;;4991201;28;20445;-86
2021/01/21 06:24:52;;;;;;;1.47;0.70;;;11.30;73.80;;;;;;4990733;28;20979;-87
2021/01/21 06:27:21;;;;;;;1.87;0.87;;;11.20;74.20;;;;;;4991134;28;20447;-88
2021/01/21 06:29:49;;;;;;;2.53;1.20;;;11.20;72.90;;;;;;4991036;28;20444;-85
2021/01/21 06:32:17;;;;;;;1.60;0.90;;;11.30;72.90;;;;;;4993903;28;20515;-87
2021/01/21 06:34:45;;;;;;;3.63;1.47;;;11.30;72.00;;;;;;4994612;28;20471;-87
2021/01/21 06:37:18;;;;;;;2.43;1.00;;;11.40;72.70;;;;;;4994710;28;20493;-87
2021/01/21 06:39:51;;;;;;;2.47;0.93;;;11.40;72.00;;;;;;4993382;28;21188;-87
2021/01/21 06:42:22;;;;;;;1.10;0.80;;;11.40;71.90;;;;;;4994430;28;20479;-86
2021/01/21 06:44:50;;;;;;;2.20;0.80;;;11.40;71.90;;;;;;4994461;28;20553;-86
2021/01/21 06:47:18;;;;;;;3.03;1.20;;;11.50;71.60;;;;;;4994224;28;20981;-86
2021/01/21 06:49:46;;;;;;;5.80;0.93;;;11.40;71.90;;;;;;4994737;28;20446;-86
2021/01/21 06:52:13;;;;;;;3.00;1.17;;;11.60;71.40;;;;;;4994383;28;20439;-86
2021/01/21 06:54:40;;;;;;;7.83;1.33;;;11.60;71.90;;;;;;4994312;28;20486;-86
2021/01/21 06:57:41;;;;;;;1.57;1.03;;;11.60;72.50;;;;;;4994100;28;20443;-86
2021/01/21 07:00:09;;;;;;;1.43;0.90;;;11.70;72.70;;;;;;4994915;28;20465;-86
2021/01/21 07:02:46;;;;;;;3.57;1.40;;;11.60;73.30;;;;;;4996216;28;20944;-86
2021/01/21 07:05:15;;;;;;;1.00;0.90;;;11.60;72.70;;;;;;4992776;28;20497;-87
2021/01/21 07:07:59;;;;;;;2.40;1.30;;;11.70;73.20;;;;;;4994359;28;20451;-86
2021/01/21 07:10:28;;;;;;;1.50;0.90;;;11.50;74.60;;;;;;4992891;28;20935;-87
2021/01/21 07:12:55;;;;;;;3.67;1.10;;;11.50;76.60;;;;;;4992562;28;20445;-87
2021/01/21 07:15:33;;;;;;;2.37;1.00;;;11.60;77.10;;;;;;4993691;28;20447;-87
2021/01/21 07:18:04;;;;;;;1.37;1.00;;;11.60;78.40;;;;;;4993097;28;20440;-86
2021/01/21 07:20:36;;;;;;;3.37;0.93;;;11.60;80.80;;;;;;4993218;28;20978;-85
2021/01/21 07:23:06;;;;;;;1.70;0.77;;;11.60;82.10;;;;;;4993570;28;20439;-85
2021/01/21 07:25:33;;;;;;;1.00;0.77;;;11.60;83.20;;;;;;4993211;28;20495;-85
2021/01/21 07:28:08;;;;;;;2.67;1.20;;;11.60;84.70;;;;;;4993367;28;20449;-86
2021/01/21 07:30:37;;;;;;;1.67;1.27;;;11.50;85.70;;;;;;4993802;28;20494;-86
2021/01/21 07:33:23;;;;;;;3.10;1.00;;;11.50;86.80;;;;;;4993837;28;20975;-86
2021/01/21 07:35:51;;;;;;;2.63;1.20;;;11.60;87.70;;;;;;4993149;28;20463;-86
2021/01/21 07:38:54;;;;;;;2.57;0.70;;;11.50;88.10;;;;;;4993696;28;20482;-86
2021/01/21 07:41:53;;;;;;;4.30;1.30;;;11.50;88.80;;;;;;4993227;28;20810;-86
2021/01/21 07:44:20;;;;;;;2.00;1.13;;;11.60;89.00;;;;;;4992747;28;20536;-86
2021/01/21 07:46:46;;;;;;;1.23;0.93;;;11.60;88.90;;;;;;4993558;28;20554;-86
2021/01/21 07:49:23;;;;;;;2.50;1.10;;;11.70;89.40;;;;;;4993098;28;20443;-86
2021/01/21 07:52:00;;;;;;;1.03;0.80;;;11.70;89.10;;;;;;4992967;28;20447;-86
2021/01/21 07:54:27;;;;;;;1.00;0.90;;;11.80;89.80;;;;;;4991619;28;20445;-86
2021/01/21 07:56:54;;;;;;;2.30;1.00;;;11.70;89.50;;;;;;4991843;28;20450;-87
2021/01/21 07:59:20;;;;;;;0.97;0.77;;;11.80;89.50;;;;;;4993128;28;20841;-87
2021/01/21 08:01:57;;;;;;;1.93;1.30;;;11.80;89.40;;;;;;4992851;28;20577;-86
2021/01/21 08:04:24;;;;;;;1.20;1.00;;;11.80;88.80;;;;;;4990909;28;20501;-87
2021/01/21 08:06:57;;;;;;;2.37;0.90;;;11.90;88.90;;;;;;4992512;28;20451;-86
2021/01/21 08:09:24;;;;;;;1.70;0.90;;;12.00;88.60;;;;;;4993232;28;20948;-86
2021/01/21 08:11:52;;;;;;;1.27;0.70;;;11.90;88.90;;;;;;4992483;28;20447;-88
2021/01/21 08:14:18;;;;;;;1.50;1.07;;;12.00;88.90;;;;;;4991287;28;21183;-87
2021/01/21 08:16:45;;;;;;;1.40;0.80;;;12.00;88.60;;;;;;4991475;28;20447;-86
2021/01/21 08:19:13;;;;;;;1.70;1.00;;;12.10;88.50;;;;;;4993136;28;20485;-86
2021/01/21 08:21:40;;;;;;;1.63;0.80;;;12.10;88.80;;;;;;4993135;28;20478;-84
2021/01/21 08:24:08;;;;;;;3.47;1.63;;;12.20;89.20;;;;;;4992594;28;20451;-85
2021/01/21 08:26:37;;;;;;;1.10;0.87;;;12.20;88.80;;;;;;4992727;28;20974;-85
2021/01/21 08:29:09;;;;;;;2.10;1.10;;;12.20;88.90;;;;;;4992505;28;20462;-84
2021/01/21 08:31:39;;;;;;;3.20;1.30;;;12.20;88.70;;;;;;4992875;28;20479;-85
2021/01/21 08:34:08;;;;;;;1.63;1.00;;;12.30;89.00;;;;;;4992602;28;20444;-84
2021/01/21 08:36:35;;;;;;;2.40;0.83;;;12.30;89.00;;;;;;4992645;28;20466;-84
2021/01/21 08:39:03;;;;;;;3.03;1.03;;;12.20;89.50;;;;;;4991718;28;20479;-84
2021/01/21 08:41:30;;;;;;;3.13;2.33;;;12.20;90.00;;;;;;4992379;28;20885;-84
2021/01/21 08:44:00;;;;;;;3.10;1.10;;;12.20;90.10;;;;;;4992393;28;20986;-84
2021/01/21 08:46:27;;;;;;;1.10;0.90;;;12.20;90.70;;;;;;4990553;28;20942;-84
2021/01/21 08:48:53;;;;;;;3.70;1.00;;;12.20;90.30;;;;;;4989946;28;20429;-83
2021/01/21 08:51:28;;;;;;;1.50;0.80;;;12.30;90.40;;;;;;4992362;28;20460;-86
2021/01/21 08:54:12;;;;;;;1.10;0.93;;;12.20;90.70;;;;;;4992200;28;20472;-88
2021/01/21 08:56:39;;;;;;;1.47;0.80;;;12.30;90.50;;;;;;4990516;28;20525;-86
2021/01/21 08:59:25;;;;;;;0.70;0.60;;;12.30;90.60;;;;;;4991899;28;20486;-84
2021/01/21 09:01:52;;;;;;;0.93;0.80;;;12.30;90.50;;;;;;4992175;28;20952;-84
2021/01/21 09:04:29;;;;;;;0.80;0.70;;;12.30;90.60;;;;;;4990804;28;20445;-82
2021/01/21 09:06:56;;;;;;;0.90;0.70;;;12.40;90.40;;;;;;4991745;28;21048;-84
2021/01/21 09:09:31;;;;;;;1.53;0.83;;;12.50;90.40;;;;;;4991824;28;20438;-85
2021/01/21 09:12:13;;;;;;;1.80;0.87;;;12.40;90.40;;;;;;4990759;28;20506;-84
2021/01/21 09:14:41;;;;;;;1.63;0.83;;;12.60;90.20;;;;;;4989721;28;20558;-85
2021/01/21 09:17:13;;;;;;;4.07;0.87;;;12.80;89.60;;;;;;4991842;28;20439;-85
2021/01/21 09:19:43;;;;;;;3.00;1.53;;;12.90;89.10;;;;;;4990164;28;20474;-88
2021/01/21 09:22:11;;;;;;;1.73;0.90;;;12.90;89.50;;;;;;4989737;28;21125;-87
2021/01/21 09:25:00;;;;;;;1.33;0.90;;;12.80;89.20;;;;;;4991981;28;20481;-87
2021/01/21 09:27:27;;;;;;;1.47;0.80;;;13.10;88.90;;;;;;4990116;28;20545;-88
2021/01/21 09:29:56;;;;;;;2.30;1.97;;;13.60;88.70;;;;;;4991470;28;20444;-88
2021/01/21 09:32:24;;;;;;;2.23;1.10;;;14.40;86.90;;;;;;4991265;28;20444;-88
2021/01/21 09:34:59;;;;;;;1.00;0.80;;;14.90;83.80;;;;;;4991077;28;20444;-87
2021/01/21 09:37:26;;;;;;;2.57;0.90;;;14.50;84.50;;;;;;4991650;28;20482;-87
2021/01/21 09:39:53;;;;;;;1.77;0.80;;;14.30;85.30;;;;;;4991315;28;20485;-87
2021/01/21 09:42:20;;;;;;;1.20;0.60;;;13.60;86.90;;;;;;4990690;28;20488;-87
2021/01/21 09:44:47;;;;;;;1.27;0.97;;;13.20;88.50;;;;;;4990524;28;20474;-87
2021/01/21 09:47:14;;;;;;;0.80;0.70;;;13.20;89.10;;;;;;4991090;28;21015;-86
2021/01/21 09:49:44;;;;;;;1.43;1.17;;;13.40;89.10;;;;;;4990971;28;20443;-87
2021/01/21 09:52:11;;;;;;;1.57;1.30;;;13.70;88.70;;;;;;4989545;28;20435;-87
2021/01/21 09:54:37;;;;;;;2.80;1.00;;;13.60;88.40;;;;;;4990791;28;20460;-87
2021/01/21 09:57:04;;;;;;;2.90;1.23;;;14.20;87.80;;;;;;4990247;28;20467;-85
2021/01/21 09:59:31;;;;;;;1.17;1.00;;;14.60;85.80;;;;;;4991057;28;20481;-86
2021/01/21 10:01:57;;;;;;;3.90;1.10;;;14.70;85.60;;;;;;4991425;28;20990;-86
2021/01/21 10:04:24;;;;;;;1.23;0.83;;;15.60;84.10;;;;;;4991024;28;20557;-86
2021/01/21 10:06:51;;;;;;;1.90;0.80;;;16.30;82.00;;;;;;4995378;28;20439;-86
2021/01/21 10:09:17;;;;;;;1.43;0.87;;;16.60;80.90;;;;;;4995416;28;20440;-86
2021/01/21 10:11:43;;;;;;;1.30;0.70;;;16.20;79.70;;;;;;4995185;28;20444;-86
2021/01/21 10:14:10;;;;;;;2.00;1.30;;;15.70;81.40;;;;;;4995553;28;20489;-86
2021/01/21 10:16:36;;;;;;;2.17;1.10;;;16.00;81.00;;;;;;4994509;28;20517;-87
2021/01/21 10:19:02;;;;;;;1.63;0.60;;;15.90;81.60;;;;;;4994994;28;20846;-87
2021/01/21 10:21:30;;;;;;;1.63;0.97;;;15.70;81.60;;;;;;4994919;28;21156;-87
2021/01/21 10:23:56;;;;;;;4.73;0.87;;;15.30;82.10;;;;;;4995120;28;20834;-87
2021/01/21 10:26:22;;;;;;;1.77;1.10;;;15.30;83.00;;;;;;4994827;28;20459;-87
2021/01/21 10:28:49;;;;;;;1.03;0.77;;;15.40;83.20;;;;;;4995035;28;20469;-86
2021/01/21 10:31:15;;;;;;;2.30;0.87;;;16.10;82.40;;;;;;4994400;28;20452;-88
2021/01/21 10:33:43;;;;;;;1.07;0.80;;;17.40;80.00;;;;;;4994329;28;20806;-88
2021/01/21 10:36:10;;;;;;;1.87;0.93;;;17.70;75.80;;;;;;4994459;28;20472;-86
2021/01/21 10:38:39;;;;;;;2.10;0.80;;;17.90;75.90;;;;;;4994762;28;20536;-86
2021/01/21 10:41:06;;;;;;;1.63;1.10;;;17.70;75.30;;;;;;4994550;28;21206;-86
2021/01/21 10:43:32;;;;;;;1.90;0.77;;;16.80;76.90;;;;;;4994614;28;20431;-88
2021/01/21 10:45:58;;;;;;;2.87;1.43;;;15.70;79.10;;;;;;4994319;28;20532;-86
2021/01/21 10:48:25;;;;;;;2.70;0.93;;;15.40;82.50;;;;;;4990921;28;20443;-88
2021/01/21 10:50:51;;;;;;;3.83;1.10;;;15.80;81.80;;;;;;4995259;28;20442;-87
2021/01/21 10:53:17;;;;;;;1.40;1.30;;;16.00;80.00;;;;;;4995098;28;20866;-87
2021/01/21 10:55:45;;;;;;;1.63;0.90;;;16.10;80.60;;;;;;4994395;28;21142;-87
2021/01/21 10:58:13;;;;;;;1.77;1.20;;;16.40;78.40;;;;;;4999719;28;20490;-87
2021/01/21 11:00:40;;;;;;;2.27;1.23;;;15.80;80.20;;;;;;4999535;28;20493;-87
2021/01/21 11:03:06;;;;;;;2.23;1.00;;;15.20;83.10;;;;;;4994705;28;20475;-87
2021/01/21 11:05:32;;;;;;;5.87;1.30;;;15.90;83.70;;;;;;4994574;28;20463;-87
2021/01/21 11:07:59;;;;;;;1.37;1.00;;;17.40;80.50;;;;;;4994765;28;20450;-87
2021/01/21 11:10:25;;;;;;;1.90;0.90;;;17.00;78.60;;;;;;4994506;28;20952;-89
2021/01/21 11:12:52;;;;;;;1.70;1.00;;;16.10;80.10;;;;;;4995000;28;20451;-87
2021/01/21 11:15:19;;;;;;;2.27;1.27;;;16.50;80.90;;;;;;4994575;28;20474;-87
2021/01/21 11:17:45;;;;;;;2.33;1.00;;;17.70;79.40;;;;;;4993818;28;20455;-86
2021/01/21 11:20:13;;;;;;;3.67;2.47;;;18.40;76.00;;;;;;4994124;28;20998;-87
2021/01/21 11:22:39;;;;;;;2.57;1.57;;;18.10;75.60;;;;;;4995342;28;20808;-94
2021/01/21 11:25:07;;;;;;;3.00;1.20;;;18.00;76.00;;;;;;4994631;28;20475;-86
2021/01/21 11:27:34;;;;;;;2.60;0.90;;;17.70;75.80;;;;;;4994456;28;20525;-88
2021/01/21 11:30:01;;;;;;;1.80;1.10;;;17.70;76.70;;;;;;4994745;28;20451;-87
2021/01/21 11:32:27;;;;;;;1.90;1.10;;;17.10;77.00;;;;;;4994169;28;20509;-89
2021/01/21 11:34:53;;;;;;;0.93;0.80;;;17.50;78.00;;;;;;4993365;28;20458;-88
2021/01/21 11:37:19;;;;;;;2.73;1.30;;;19.00;76.10;;;;;;4994000;28;20451;-88
2021/01/21 11:39:46;;;;;;;5.07;1.50;;;20.60;72.00;;;;;;4993596;28;20484;-88
2021/01/21 11:42:12;;;;;;;1.30;0.90;;;20.80;68.50;;;;;;4993695;28;20493;-88
2021/01/21 11:44:38;;;;;;;1.40;1.20;;;19.30;68.80;;;;;;4994319;28;20447;-88
2021/01/21 11:47:05;;;;;;;2.30;1.03;;;17.60;72.40;;;;;;4993454;28;20517;-89
2021/01/21 11:49:32;;;;;;;3.63;1.10;;;16.60;76.40;;;;;;4993700;28;20439;-89
2021/01/21 11:51:58;;;;;;;1.40;1.27;;;16.10;78.70;;;;;;4993794;28;20451;-88
2021/01/21 11:54:25;;;;;;;1.67;0.80;;;16.10;79.80;;;;;;4993274;28;20431;-88
2021/01/21 11:56:51;;;;;;;3.17;2.13;;;16.00;80.20;;;;;;4993449;28;20979;-88
2021/01/21 11:59:17;;;;;;;4.07;1.10;;;16.10;80.40;;;;;;4993146;28;20479;-89
2021/01/21 12:01:43;;;;;;;3.77;1.10;;;16.10;79.40;;;;;;4993356;28;20447;-87
2021/01/21 12:04:11;;;;;;;3.53;1.30;;;16.00;79.50;;;;;;4992792;28;20455;-88
2021/01/21 12:06:37;;;;;;;2.80;1.10;;;15.80;80.20;;;;;;4993863;28;20482;-88
2021/01/21 12:09:04;;;;;;;2.37;1.37;;;15.60;79.90;;;;;;4993217;28;20473;-88
2021/01/21 12:11:31;;;;;;;1.87;1.20;;;15.30;80.90;;;;;;4993214;28;20917;-89
2021/01/21 12:13:57;;;;;;;2.83;1.80;;;15.20;81.60;;;;;;4991578;28;20454;-89
2021/01/21 12:16:23;;;;;;;1.97;0.97;;;15.30;81.60;;;;;;4992961;28;20470;-87
2021/01/21 12:18:50;;;;;;;1.63;0.90;;;15.20;81.80;;;;;;4993511;28;21061;-88
2021/01/21 12:21:18;;;;;;;1.00;0.90;;;15.20;81.70;;;;;;4992892;28;20455;-88
2021/01/21 12:23:44;;;;;;;1.53;1.30;;;15.20;82.00;;;;;;4992858;28;20842;-89
2021/01/21 12:26:11;;;;;;;3.77;1.53;;;15.10;81.70;;;;;;4992654;28;20467;-89
2021/01/21 12:28:37;;;;;;;1.37;1.00;;;15.10;82.20;;;;;;4992054;28;20432;-89
2021/01/21 12:31:04;;;;;;;2.30;1.53;;;14.80;82.00;;;;;;4993082;28;20439;-87
2021/01/21 12:33:30;;;;;;;2.50;1.37;;;14.90;83.00;;;;;;4992514;28;20451;-88
2021/01/21 12:35:57;;;;;;;3.20;1.40;;;14.80;82.90;;;;;;4991612;28;20478;-89
2021/01/21 12:38:24;;;;;;;1.90;1.13;;;14.80;82.90;;;;;;4992618;28;20512;-89
2021/01/21 12:40:50;;;;;;;1.00;0.90;;;15.20;83.50;;;;;;4993166;28;20806;-88
2021/01/21 12:43:16;;;;;;;1.80;1.00;;;15.40;82.10;;;;;;4992762;28;20586;-88
2021/01/21 12:45:45;;;;;;;1.63;1.10;;;15.50;81.50;;;;;;4992482;28;20816;-89
2021/01/21 12:51:36;;;;;;;1.30;0.87;;;15.40;81.80;;;;;;4950572;29;20432;-89
2021/01/21 13:23:35;;;;;;;1.43;1.07;;;14.60;85.70;;;;;;5043311;28;20522;-87
2021/01/21 13:27:16;;;;;;;2.60;1.20;;;14.70;86.00;;;;;;5042473;28;21071;-86
2021/01/21 13:29:45;;;;;;;1.77;0.97;;;14.60;85.50;;;;;;4960200;28;20452;-87
2021/01/21 13:35:45;;;;;;;1.10;1.00;;;14.40;86.70;;;;;;4883860;28;20469;-81
2021/01/21 13:38:11;;;;;;;1.47;1.20;;;14.10;87.60;;;;;;4970406;28;20456;-88
2021/01/21 13:41:00;;;;;;;1.80;0.80;;;14.10;88.60;;;;;;4993481;28;21011;-89
2021/01/21 13:58:10;;;;;;;1.10;1.00;;;14.00;89.60;;;;;;4887800;29;20590;-89
2021/01/21 14:15:16;;;;;;;1.00;0.90;;;13.80;92.10;;;;;;4841479;29;20436;-88
2021/01/21 14:18:46;;;;;;;;;;;;;;;;;;;;;
2021/01/21 14:24:33;;;;;;;2.43;0.97;;;13.80;91.90;;;;;;4836037;28;20755;-87
2021/01/21 14:27:38;;;;;;;6.23;1.30;;;13.70;91.70;;;;;;4975583;28;20911;-87
2021/01/21 14:30:07;;;;;;;2.30;1.40;;;13.70;91.90;;;;;;5047353;28;20575;-88
2021/01/21 14:32:34;;;;;;;4.30;1.00;;;13.80;92.10;;;;;;5044466;28;20963;-88
2021/01/21 14:35:40;;;;;;;4.87;1.20;;;13.70;92.30;;;;;;5047787;28;20552;-88
2021/01/21 14:39:08;;;;;;;1.97;1.20;;;13.60;92.30;;;;;;5047584;28;20456;-88
2021/01/21 14:41:36;;;;;;;2.50;1.00;;;13.70;92.50;;;;;;5050135;28;20445;-87
2021/01/21 14:44:02;;;;;;;2.63;1.20;;;13.60;92.50;;;;;;5050423;28;20421;-87
2021/01/21 14:46:29;;;;;;;1.53;1.07;;;13.60;92.80;;;;;;5050428;28;20458;-87
2021/01/21 14:48:56;;;;;;;2.10;1.07;;;13.50;93.00;;;;;;5050427;28;20433;-88
2021/01/21 14:51:22;;;;;;;1.90;0.90;;;13.50;93.30;;;;;;5050027;28;20450;-88
2021/01/21 14:53:50;;;;;;;2.83;1.10;;;13.50;93.50;;;;;;5054296;28;20440;-88
2021/01/21 14:56:16;;;;;;;2.77;1.57;;;13.40;93.60;;;;;;5053461;28;20469;-88
2021/01/21 14:58:44;;;;;;;1.20;0.80;;;13.40;93.80;;;;;;5047619;28;20879;-87
2021/01/21 15:01:11;;;;;;;1.00;0.80;;;13.30;93.90;;;;;;5053711;28;20446;-88
2021/01/21 15:03:38;;;;;;;2.17;1.13;;;13.30;93.90;;;;;;5052073;28;20451;-88
2021/01/21 15:06:07;;;;;;;4.40;1.10;;;13.30;94.00;;;;;;5053844;28;20479;-88
2021/01/21 15:08:33;;;;;;;3.93;1.10;;;13.20;93.90;;;;;;5052229;28;20436;-88
2021/01/21 15:11:23;;;;;;;2.40;1.07;;;13.20;94.10;;;;;;5054783;28;20443;-88
2021/01/21 15:16:51;;;;;;;1.47;0.80;;;13.10;94.50;;;;;;5016800;23;20588;-88
2021/01/21 15:19:24;;;;;;;1.57;0.93;;;13.10;94.20;;;;;;5004561;28;20475;-88
2021/01/21 15:21:54;;;;;;;2.37;1.13;;;13.10;94.40;;;;;;5004743;28;20940;-88
2021/01/21 15:24:20;;;;;;;2.27;1.20;;;13.10;94.40;;;;;;5003891;28;20457;-86
2021/01/21 15:26:47;;;;;;;6.03;1.30;;;13.10;94.30;;;;;;4985347;28;20970;-88
2021/01/21 15:29:26;;;;;;;;;;;;;;;;;;;;;
2021/01/21 15:35:20;;;;;;;3.37;1.50;;;13.00;94.20;;;;;;4982412;28;20503;-88
2021/01/21 15:37:49;;;;;;;1.30;0.80;;;12.90;94.30;;;;;;4985832;28;20451;-88